sensor_id;sensor_type;location;lat;lon;timestamp;P1;durP1;ratioP1;P2;durP2;ratioP2
11018;SDS011;5563;52.296;6.806;2023-03-19T00:02:40;16.50;;;14.45;;
11018;SDS011;5563;52.296;6.806;2023-03-19T00:05:17;16.50;;;14.80;;
11018;SDS011;5563;52.296;6.806;2023-03-19T00:08:07;15.60;;;13.63;;
11018;SDS011;5563;52.296;6.806;2023-03-19T00:10:43;15.68;;;13.45;;
11018;SDS011;5563;52.296;6.806;2023-03-19T00:13:30;16.02;;;13.95;;
11018;SDS011;5563;52.296;6.806;2023-03-19T00:16:09;15.60;;;13.98;;
11018;SDS011;5563;52.296;6.806;2023-03-19T00:18:55;14.85;;;13.25;;
11018;SDS011;5563;52.296;6.806;2023-03-19T00:21:36;13.82;;;12.43;;
11018;SDS011;5563;52.296;6.806;2023-03-19T00:24:05;14.25;;;12.75;;
11018;SDS011;5563;52.296;6.806;2023-03-19T00:26:45;12.85;;;11.65;;
11018;SDS011;5563;52.296;6.806;2023-03-19T00:29:41;13.50;;;12.07;;
11018;SDS011;5563;52.296;6.806;2023-03-19T00:32:09;12.35;;;11.02;;
11018;SDS011;5563;52.296;6.806;2023-03-19T00:34:48;11.77;;;10.60;;
11018;SDS011;5563;52.296;6.806;2023-03-19T00:37:38;10.90;;;9.90;;
11018;SDS011;5563;52.296;6.806;2023-03-19T00:40:24;11.43;;;9.52;;
11018;SDS011;5563;52.296;6.806;2023-03-19T00:43:03;9.23;;;8.32;;
11018;SDS011;5563;52.296;6.806;2023-03-19T00:45:44;9.50;;;7.80;;
11018;SDS011;5563;52.296;6.806;2023-03-19T00:48:31;7.78;;;6.95;;
11018;SDS011;5563;52.296;6.806;2023-03-19T00:51:08;8.55;;;7.20;;
11018;SDS011;5563;52.296;6.806;2023-03-19T00:54:04;6.78;;;5.90;;
11018;SDS011;5563;52.296;6.806;2023-03-19T00:56:49;6.30;;;5.70;;
11018;SDS011;5563;52.296;6.806;2023-03-19T00:59:19;5.93;;;5.38;;
11018;SDS011;5563;52.296;6.806;2023-03-19T01:02:07;5.65;;;4.78;;
11018;SDS011;5563;52.296;6.806;2023-03-19T01:04:56;5.32;;;4.80;;
11018;SDS011;5563;52.296;6.806;2023-03-19T01:07:39;4.47;;;3.97;;
11018;SDS011;5563;52.296;6.806;2023-03-19T01:10:21;4.88;;;3.97;;
11018;SDS011;5563;52.296;6.806;2023-03-19T01:13:07;4.55;;;3.97;;
11018;SDS011;5563;52.296;6.806;2023-03-19T01:15:44;4.20;;;3.80;;
11018;SDS011;5563;52.296;6.806;2023-03-19T01:18:24;4.22;;;3.83;;
11018;SDS011;5563;52.296;6.806;2023-03-19T01:20:59;4.32;;;3.80;;
11018;SDS011;5563;52.296;6.806;2023-03-19T01:23:40;4.03;;;3.70;;
11018;SDS011;5563;52.296;6.806;2023-03-19T01:26:12;4.63;;;3.58;;
11018;SDS011;5563;52.296;6.806;2023-03-19T01:29:02;3.88;;;3.45;;
11018;SDS011;5563;52.296;6.806;2023-03-19T01:31:37;3.90;;;3.50;;
11018;SDS011;5563;52.296;6.806;2023-03-19T01:34:17;3.78;;;3.15;;
11018;SDS011;5563;52.296;6.806;2023-03-19T01:37:03;3.42;;;3.13;;
11018;SDS011;5563;52.296;6.806;2023-03-19T01:39:49;3.70;;;3.10;;
11018;SDS011;5563;52.296;6.806;2023-03-19T01:43:10;5.03;;;3.60;;
11018;SDS011;5563;52.296;6.806;2023-03-19T01:46:05;3.40;;;3.10;;
11018;SDS011;5563;52.296;6.806;2023-03-19T01:48:54;4.15;;;3.10;;
11018;SDS011;5563;52.296;6.806;2023-03-19T01:51:38;4.90;;;3.35;;
11018;SDS011;5563;52.296;6.806;2023-03-19T01:54:14;3.45;;;3.00;;
11018;SDS011;5563;52.296;6.806;2023-03-19T01:57:33;3.40;;;3.15;;
11018;SDS011;5563;52.296;6.806;2023-03-19T02:00:33;3.85;;;3.40;;
11018;SDS011;5563;52.296;6.806;2023-03-19T02:03:14;3.20;;;2.83;;
11018;SDS011;5563;52.296;6.806;2023-03-19T02:09:37;5.05;;;3.47;;
11018;SDS011;5563;52.296;6.806;2023-03-19T02:12:13;3.60;;;3.13;;
11018;SDS011;5563;52.296;6.806;2023-03-19T02:14:59;3.22;;;2.95;;
11018;SDS011;5563;52.296;6.806;2023-03-19T02:17:47;4.68;;;2.92;;
11018;SDS011;5563;52.296;6.806;2023-03-19T02:23:42;3.58;;;2.97;;
11018;SDS011;5563;52.296;6.806;2023-03-19T02:26:29;3.65;;;2.92;;
11018;SDS011;5563;52.296;6.806;2023-03-19T02:29:11;3.72;;;3.17;;
11018;SDS011;5563;52.296;6.806;2023-03-19T02:31:46;3.28;;;2.92;;
11018;SDS011;5563;52.296;6.806;2023-03-19T02:34:35;5.50;;;2.90;;
11018;SDS011;5563;52.296;6.806;2023-03-19T02:37:45;4.53;;;2.63;;
11018;SDS011;5563;52.296;6.806;2023-03-19T02:40:40;4.30;;;3.05;;
11018;SDS011;5563;52.296;6.806;2023-03-19T02:43:21;3.97;;;2.97;;
11018;SDS011;5563;52.296;6.806;2023-03-19T02:46:12;3.15;;;2.85;;
11018;SDS011;5563;52.296;6.806;2023-03-19T02:48:57;3.15;;;2.90;;
11018;SDS011;5563;52.296;6.806;2023-03-19T02:51:37;4.93;;;2.85;;
11018;SDS011;5563;52.296;6.806;2023-03-19T02:54:31;3.53;;;3.15;;
11018;SDS011;5563;52.296;6.806;2023-03-19T02:57:25;3.55;;;2.97;;
11018;SDS011;5563;52.296;6.806;2023-03-19T03:03:14;4.15;;;2.72;;
11018;SDS011;5563;52.296;6.806;2023-03-19T03:05:59;4.38;;;2.80;;
11018;SDS011;5563;52.296;6.806;2023-03-19T03:08:55;3.20;;;2.92;;
11018;SDS011;5563;52.296;6.806;2023-03-19T03:11:33;3.90;;;2.97;;
11018;SDS011;5563;52.296;6.806;2023-03-19T03:14:06;3.47;;;3.03;;
11018;SDS011;5563;52.296;6.806;2023-03-19T03:16:58;5.30;;;3.00;;
11018;SDS011;5563;52.296;6.806;2023-03-19T03:19:31;3.03;;;2.72;;
11018;SDS011;5563;52.296;6.806;2023-03-19T03:22:10;3.47;;;3.17;;
11018;SDS011;5563;52.296;6.806;2023-03-19T03:24:53;3.75;;;3.08;;
11018;SDS011;5563;52.296;6.806;2023-03-19T03:27:46;4.32;;;3.20;;
11018;SDS011;5563;52.296;6.806;2023-03-19T03:30:34;3.08;;;2.80;;
11018;SDS011;5563;52.296;6.806;2023-03-19T03:33:16;3.30;;;2.75;;
11018;SDS011;5563;52.296;6.806;2023-03-19T03:36:06;3.63;;;3.33;;
11018;SDS011;5563;52.296;6.806;2023-03-19T03:38:57;4.25;;;3.40;;
11018;SDS011;5563;52.296;6.806;2023-03-19T03:44:51;3.85;;;3.45;;
11018;SDS011;5563;52.296;6.806;2023-03-19T03:47:47;4.53;;;3.22;;
11018;SDS011;5563;52.296;6.806;2023-03-19T03:50:29;3.53;;;3.15;;
11018;SDS011;5563;52.296;6.806;2023-03-19T03:53:08;3.63;;;3.33;;
11018;SDS011;5563;52.296;6.806;2023-03-19T03:55:50;3.88;;;3.30;;
11018;SDS011;5563;52.296;6.806;2023-03-19T03:58:35;3.90;;;3.50;;
11018;SDS011;5563;52.296;6.806;2023-03-19T04:01:21;3.67;;;3.38;;
11018;SDS011;5563;52.296;6.806;2023-03-19T04:03:59;3.80;;;3.45;;
11018;SDS011;5563;52.296;6.806;2023-03-19T04:06:36;4.65;;;4.07;;
11018;SDS011;5563;52.296;6.806;2023-03-19T04:09:18;4.22;;;3.72;;
11018;SDS011;5563;52.296;6.806;2023-03-19T04:12:03;4.07;;;3.67;;
11018;SDS011;5563;52.296;6.806;2023-03-19T04:15:11;4.15;;;3.75;;
11018;SDS011;5563;52.296;6.806;2023-03-19T04:17:51;4.50;;;4.07;;
11018;SDS011;5563;52.296;6.806;2023-03-19T04:20:28;4.57;;;4.18;;
11018;SDS011;5563;52.296;6.806;2023-03-19T04:23:19;4.85;;;4.32;;
11018;SDS011;5563;52.296;6.806;2023-03-19T04:25:56;4.72;;;4.30;;
11018;SDS011;5563;52.296;6.806;2023-03-19T04:28:50;4.95;;;4.50;;
11018;SDS011;5563;52.296;6.806;2023-03-19T04:31:24;4.93;;;4.53;;
11018;SDS011;5563;52.296;6.806;2023-03-19T04:34:10;5.20;;;4.63;;
11018;SDS011;5563;52.296;6.806;2023-03-19T04:36:42;5.68;;;5.18;;
11018;SDS011;5563;52.296;6.806;2023-03-19T04:39:32;5.00;;;4.60;;
11018;SDS011;5563;52.296;6.806;2023-03-19T04:42:05;5.25;;;4.70;;
11018;SDS011;5563;52.296;6.806;2023-03-19T04:44:59;5.88;;;5.30;;
11018;SDS011;5563;52.296;6.806;2023-03-19T04:47:42;5.63;;;4.93;;
11018;SDS011;5563;52.296;6.806;2023-03-19T04:50:18;5.88;;;5.38;;
11018;SDS011;5563;52.296;6.806;2023-03-19T04:52:49;6.10;;;5.50;;
11018;SDS011;5563;52.296;6.806;2023-03-19T04:55:26;7.03;;;5.85;;
11018;SDS011;5563;52.296;6.806;2023-03-19T04:57:57;6.57;;;5.97;;
11018;SDS011;5563;52.296;6.806;2023-03-19T05:00:31;6.60;;;5.95;;
11018;SDS011;5563;52.296;6.806;2023-03-19T05:03:05;7.47;;;6.75;;
11018;SDS011;5563;52.296;6.806;2023-03-19T05:05:39;7.63;;;6.85;;
11018;SDS011;5563;52.296;6.806;2023-03-19T05:08:06;7.15;;;6.55;;
11018;SDS011;5563;52.296;6.806;2023-03-19T05:10:40;7.47;;;6.80;;
11018;SDS011;5563;52.296;6.806;2023-03-19T05:13:13;8.77;;;7.07;;
11018;SDS011;5563;52.296;6.806;2023-03-19T05:15:41;8.30;;;7.45;;
11018;SDS011;5563;52.296;6.806;2023-03-19T05:18:18;8.73;;;7.38;;
11018;SDS011;5563;52.296;6.806;2023-03-19T05:20:48;9.00;;;8.10;;
11018;SDS011;5563;52.296;6.806;2023-03-19T05:23:21;8.73;;;7.82;;
11018;SDS011;5563;52.296;6.806;2023-03-19T05:25:49;8.27;;;7.47;;
11018;SDS011;5563;52.296;6.806;2023-03-19T05:28:23;8.93;;;8.13;;
11018;SDS011;5563;52.296;6.806;2023-03-19T05:30:50;9.32;;;8.38;;
11018;SDS011;5563;52.296;6.806;2023-03-19T05:33:26;9.38;;;8.48;;
11018;SDS011;5563;52.296;6.806;2023-03-19T05:35:53;9.95;;;8.95;;
11018;SDS011;5563;52.296;6.806;2023-03-19T05:38:27;8.68;;;7.88;;
11018;SDS011;5563;52.296;6.806;2023-03-19T05:41:07;10.45;;;9.27;;
11018;SDS011;5563;52.296;6.806;2023-03-19T05:43:40;10.52;;;8.85;;
11018;SDS011;5563;52.296;6.806;2023-03-19T05:46:14;10.48;;;9.20;;
11018;SDS011;5563;52.296;6.806;2023-03-19T05:48:41;9.77;;;8.82;;
11018;SDS011;5563;52.296;6.806;2023-03-19T05:51:18;10.25;;;9.25;;
11018;SDS011;5563;52.296;6.806;2023-03-19T05:53:51;11.27;;;9.35;;
11018;SDS011;5563;52.296;6.806;2023-03-19T05:56:25;10.70;;;9.60;;
11018;SDS011;5563;52.296;6.806;2023-03-19T05:58:53;10.68;;;9.57;;
11018;SDS011;5563;52.296;6.806;2023-03-19T06:01:26;10.50;;;9.50;;
11018;SDS011;5563;52.296;6.806;2023-03-19T06:04:03;13.50;;;10.15;;
11018;SDS011;5563;52.296;6.806;2023-03-19T06:06:37;10.90;;;8.93;;
11018;SDS011;5563;52.296;6.806;2023-03-19T06:09:04;10.98;;;9.80;;
11018;SDS011;5563;52.296;6.806;2023-03-19T06:11:37;10.80;;;9.80;;
11018;SDS011;5563;52.296;6.806;2023-03-19T06:14:12;10.45;;;9.45;;
11018;SDS011;5563;52.296;6.806;2023-03-19T06:16:46;10.77;;;9.77;;
11018;SDS011;5563;52.296;6.806;2023-03-19T06:19:14;10.48;;;9.48;;
11018;SDS011;5563;52.296;6.806;2023-03-19T06:21:50;10.73;;;9.63;;
11018;SDS011;5563;52.296;6.806;2023-03-19T06:24:18;10.27;;;9.32;;
11018;SDS011;5563;52.296;6.806;2023-03-19T06:26:54;10.57;;;9.48;;
11018;SDS011;5563;52.296;6.806;2023-03-19T06:29:34;11.02;;;9.95;;
11018;SDS011;5563;52.296;6.806;2023-03-19T06:32:08;11.00;;;9.85;;
11018;SDS011;5563;52.296;6.806;2023-03-19T06:34:42;10.70;;;9.68;;
11018;SDS011;5563;52.296;6.806;2023-03-19T06:37:16;11.18;;;9.68;;
11018;SDS011;5563;52.296;6.806;2023-03-19T06:39:44;11.55;;;10.35;;
11018;SDS011;5563;52.296;6.806;2023-03-19T06:42:26;11.30;;;10.20;;
11018;SDS011;5563;52.296;6.806;2023-03-19T06:44:53;11.10;;;10.10;;
11018;SDS011;5563;52.296;6.806;2023-03-19T06:47:27;11.05;;;9.95;;
11018;SDS011;5563;52.296;6.806;2023-03-19T06:49:54;11.02;;;9.88;;
11018;SDS011;5563;52.296;6.806;2023-03-19T06:52:39;10.55;;;9.55;;
11018;SDS011;5563;52.296;6.806;2023-03-19T06:55:12;10.75;;;9.75;;
11018;SDS011;5563;52.296;6.806;2023-03-19T06:57:49;9.93;;;9.00;;
11018;SDS011;5563;52.296;6.806;2023-03-19T07:00:24;10.20;;;9.18;;
11018;SDS011;5563;52.296;6.806;2023-03-19T07:02:51;11.32;;;10.05;;
11018;SDS011;5563;52.296;6.806;2023-03-19T07:05:24;10.13;;;9.15;;
11018;SDS011;5563;52.296;6.806;2023-03-19T07:07:52;11.63;;;9.63;;
11018;SDS011;5563;52.296;6.806;2023-03-19T07:10:19;10.90;;;9.80;;
11018;SDS011;5563;52.296;6.806;2023-03-19T07:12:54;11.30;;;10.10;;
11018;SDS011;5563;52.296;6.806;2023-03-19T07:15:21;11.93;;;10.00;;
11018;SDS011;5563;52.296;6.806;2023-03-19T07:17:55;11.32;;;10.23;;
11018;SDS011;5563;52.296;6.806;2023-03-19T07:20:29;11.65;;;10.45;;
11018;SDS011;5563;52.296;6.806;2023-03-19T07:22:58;11.07;;;9.98;;
11018;SDS011;5563;52.296;6.806;2023-03-19T07:25:31;11.90;;;10.32;;
11018;SDS011;5563;52.296;6.806;2023-03-19T07:28:06;11.27;;;10.18;;
11018;SDS011;5563;52.296;6.806;2023-03-19T07:30:40;11.80;;;10.48;;
11018;SDS011;5563;52.296;6.806;2023-03-19T07:33:14;12.57;;;10.57;;
11018;SDS011;5563;52.296;6.806;2023-03-19T07:35:51;11.65;;;10.45;;
11018;SDS011;5563;52.296;6.806;2023-03-19T07:38:20;11.52;;;10.38;;
11018;SDS011;5563;52.296;6.806;2023-03-19T07:41:05;12.73;;;11.10;;
11018;SDS011;5563;52.296;6.806;2023-03-19T07:43:33;12.18;;;10.63;;
11018;SDS011;5563;52.296;6.806;2023-03-19T07:46:09;12.48;;;11.18;;
11018;SDS011;5563;52.296;6.806;2023-03-19T07:48:45;12.82;;;11.52;;
11018;SDS011;5563;52.296;6.806;2023-03-19T07:51:24;13.88;;;11.88;;
11018;SDS011;5563;52.296;6.806;2023-03-19T07:53:58;12.60;;;10.63;;
11018;SDS011;5563;52.296;6.806;2023-03-19T07:56:40;13.15;;;11.45;;
11018;SDS011;5563;52.296;6.806;2023-03-19T07:59:07;12.68;;;11.32;;
11018;SDS011;5563;52.296;6.806;2023-03-19T08:01:41;12.88;;;11.57;;
11018;SDS011;5563;52.296;6.806;2023-03-19T08:04:16;14.82;;;12.00;;
11018;SDS011;5563;52.296;6.806;2023-03-19T08:06:46;14.30;;;12.57;;
11018;SDS011;5563;52.296;6.806;2023-03-19T08:09:20;13.50;;;12.10;;
11018;SDS011;5563;52.296;6.806;2023-03-19T08:11:50;13.68;;;12.00;;
11018;SDS011;5563;52.296;6.806;2023-03-19T08:14:25;14.48;;;12.95;;
11018;SDS011;5563;52.296;6.806;2023-03-19T08:16:52;14.40;;;12.52;;
11018;SDS011;5563;52.296;6.806;2023-03-19T08:19:26;12.70;;;10.88;;
11018;SDS011;5563;52.296;6.806;2023-03-19T08:21:53;12.88;;;11.57;;
11018;SDS011;5563;52.296;6.806;2023-03-19T08:24:34;13.10;;;11.80;;
11018;SDS011;5563;52.296;6.806;2023-03-19T08:27:02;11.05;;;9.93;;
11018;SDS011;5563;52.296;6.806;2023-03-19T08:29:38;12.25;;;10.73;;
11018;SDS011;5563;52.296;6.806;2023-03-19T08:32:06;13.15;;;11.60;;
11018;SDS011;5563;52.296;6.806;2023-03-19T08:34:34;11.77;;;10.55;;
11018;SDS011;5563;52.296;6.806;2023-03-19T08:37:15;12.20;;;10.98;;
11018;SDS011;5563;52.296;6.806;2023-03-19T08:39:58;11.68;;;10.45;;
11018;SDS011;5563;52.296;6.806;2023-03-19T08:42:41;11.57;;;10.40;;
11018;SDS011;5563;52.296;6.806;2023-03-19T08:45:11;11.43;;;10.32;;
11018;SDS011;5563;52.296;6.806;2023-03-19T08:47:49;12.68;;;10.75;;
11018;SDS011;5563;52.296;6.806;2023-03-19T08:50:20;11.35;;;10.15;;
11018;SDS011;5563;52.296;6.806;2023-03-19T08:52:54;11.30;;;9.88;;
11018;SDS011;5563;52.296;6.806;2023-03-19T08:55:27;10.82;;;9.65;;
11018;SDS011;5563;52.296;6.806;2023-03-19T08:58:07;11.82;;;10.63;;
11018;SDS011;5563;52.296;6.806;2023-03-19T09:00:41;11.18;;;10.07;;
11018;SDS011;5563;52.296;6.806;2023-03-19T09:03:18;11.10;;;9.93;;
11018;SDS011;5563;52.296;6.806;2023-03-19T09:05:47;11.73;;;10.60;;
11018;SDS011;5563;52.296;6.806;2023-03-19T09:08:28;12.35;;;10.68;;
11018;SDS011;5563;52.296;6.806;2023-03-19T09:10:59;11.32;;;10.18;;
11018;SDS011;5563;52.296;6.806;2023-03-19T09:13:51;10.77;;;9.68;;
11018;SDS011;5563;52.296;6.806;2023-03-19T09:16:30;11.40;;;10.25;;
11018;SDS011;5563;52.296;6.806;2023-03-19T09:19:08;10.30;;;9.30;;
11018;SDS011;5563;52.296;6.806;2023-03-19T09:21:46;10.48;;;9.45;;
11018;SDS011;5563;52.296;6.806;2023-03-19T09:24:19;9.85;;;8.85;;
11018;SDS011;5563;52.296;6.806;2023-03-19T09:26:59;10.00;;;9.00;;
11018;SDS011;5563;52.296;6.806;2023-03-19T09:29:33;10.15;;;9.25;;
11018;SDS011;5563;52.296;6.806;2023-03-19T09:32:08;10.18;;;9.23;;
11018;SDS011;5563;52.296;6.806;2023-03-19T09:34:51;9.38;;;8.48;;
11018;SDS011;5563;52.296;6.806;2023-03-19T09:37:29;9.20;;;8.30;;
11018;SDS011;5563;52.296;6.806;2023-03-19T09:40:00;10.48;;;9.13;;
11018;SDS011;5563;52.296;6.806;2023-03-19T09:42:48;9.25;;;8.38;;
11018;SDS011;5563;52.296;6.806;2023-03-19T09:45:30;9.38;;;8.43;;
11018;SDS011;5563;52.296;6.806;2023-03-19T09:48:06;10.07;;;8.05;;
11018;SDS011;5563;52.296;6.806;2023-03-19T09:50:48;8.13;;;7.43;;
11018;SDS011;5563;52.296;6.806;2023-03-19T09:56:27;7.32;;;6.72;;
11018;SDS011;5563;52.296;6.806;2023-03-19T09:59:10;7.85;;;7.05;;
11018;SDS011;5563;52.296;6.806;2023-03-19T10:01:44;7.10;;;6.45;;
11018;SDS011;5563;52.296;6.806;2023-03-19T10:05:13;7.05;;;6.30;;
11018;SDS011;5563;52.296;6.806;2023-03-19T10:08:05;6.15;;;5.55;;
11018;SDS011;5563;52.296;6.806;2023-03-19T10:16:26;8.50;;;7.68;;
11018;SDS011;5563;52.296;6.806;2023-03-19T10:19:11;7.35;;;6.68;;
11018;SDS011;5563;52.296;6.806;2023-03-19T10:22:00;6.95;;;6.22;;
11018;SDS011;5563;52.296;6.806;2023-03-19T10:24:40;7.30;;;6.70;;
11018;SDS011;5563;52.296;6.806;2023-03-19T10:27:26;6.00;;;5.40;;
11018;SDS011;5563;52.296;6.806;2023-03-19T10:30:10;6.72;;;6.13;;
11018;SDS011;5563;52.296;6.806;2023-03-19T10:32:52;6.05;;;5.55;;
11018;SDS011;5563;52.296;6.806;2023-03-19T10:36:01;5.35;;;4.85;;
11018;SDS011;5563;52.296;6.806;2023-03-19T10:38:47;5.45;;;4.95;;
11018;SDS011;5563;52.296;6.806;2023-03-19T10:44:47;5.07;;;4.57;;
11018;SDS011;5563;52.296;6.806;2023-03-19T10:47:24;4.70;;;4.32;;
11018;SDS011;5563;52.296;6.806;2023-03-19T10:56:00;5.53;;;4.90;;
11018;SDS011;5563;52.296;6.806;2023-03-19T10:58:39;4.80;;;4.47;;
11018;SDS011;5563;52.296;6.806;2023-03-19T11:01:14;4.88;;;4.47;;
11018;SDS011;5563;52.296;6.806;2023-03-19T11:03:57;4.32;;;3.97;;
11018;SDS011;5563;52.296;6.806;2023-03-19T11:06:33;5.38;;;4.55;;
11018;SDS011;5563;52.296;6.806;2023-03-19T11:09:17;4.75;;;4.20;;
11018;SDS011;5563;52.296;6.806;2023-03-19T11:12:29;4.97;;;4.57;;
11018;SDS011;5563;52.296;6.806;2023-03-19T11:15:17;4.85;;;4.20;;
11018;SDS011;5563;52.296;6.806;2023-03-19T11:21:06;5.10;;;4.60;;
11018;SDS011;5563;52.296;6.806;2023-03-19T11:24:00;4.10;;;3.70;;
11018;SDS011;5563;52.296;6.806;2023-03-19T11:26:38;4.38;;;3.97;;
11018;SDS011;5563;52.296;6.806;2023-03-19T11:29:15;3.95;;;3.65;;
11018;SDS011;5563;52.296;6.806;2023-03-19T11:31:53;5.43;;;4.00;;
11018;SDS011;5563;52.296;6.806;2023-03-19T11:41:31;3.70;;;3.40;;
11018;SDS011;5563;52.296;6.806;2023-03-19T11:44:04;3.92;;;3.50;;
11018;SDS011;5563;52.296;6.806;2023-03-19T11:50:02;4.47;;;4.13;;
11018;SDS011;5563;52.296;6.806;2023-03-19T11:53:13;3.97;;;3.67;;
11018;SDS011;5563;52.296;6.806;2023-03-19T11:56:17;11.93;;;8.98;;
11018;SDS011;5563;52.296;6.806;2023-03-19T12:08:13;3.60;;;3.30;;
11018;SDS011;5563;52.296;6.806;2023-03-19T12:14:18;3.92;;;3.28;;
11018;SDS011;5563;52.296;6.806;2023-03-19T12:17:02;3.63;;;3.08;;
11018;SDS011;5563;52.296;6.806;2023-03-19T12:19:56;3.22;;;3.00;;
11018;SDS011;5563;52.296;6.806;2023-03-19T12:26:07;3.13;;;2.88;;
11018;SDS011;5563;52.296;6.806;2023-03-19T12:35:13;3.10;;;2.55;;
11018;SDS011;5563;52.296;6.806;2023-03-19T12:38:15;3.65;;;3.03;;
11018;SDS011;5563;52.296;6.806;2023-03-19T12:41:06;2.60;;;2.40;;
11018;SDS011;5563;52.296;6.806;2023-03-19T12:46:37;3.13;;;2.83;;
11018;SDS011;5563;52.296;6.806;2023-03-19T12:49:18;3.47;;;2.33;;
11018;SDS011;5563;52.296;6.806;2023-03-19T12:51:54;2.60;;;2.40;;
11018;SDS011;5563;52.296;6.806;2023-03-19T13:01:31;2.80;;;2.60;;
11018;SDS011;5563;52.296;6.806;2023-03-19T13:06:33;3.17;;;2.67;;
11018;SDS011;5563;52.296;6.806;2023-03-19T13:09:12;2.67;;;2.47;;
11018;SDS011;5563;52.296;6.806;2023-03-19T13:11:59;3.15;;;2.38;;
11018;SDS011;5563;52.296;6.806;2023-03-19T13:21:20;3.13;;;2.45;;
11018;SDS011;5563;52.296;6.806;2023-03-19T13:25:08;3.30;;;2.75;;
11018;SDS011;5563;52.296;6.806;2023-03-19T13:27:52;2.80;;;2.50;;
11018;SDS011;5563;52.296;6.806;2023-03-19T13:46:53;3.55;;;2.33;;
11018;SDS011;5563;52.296;6.806;2023-03-19T13:49:34;2.40;;;2.20;;
11018;SDS011;5563;52.296;6.806;2023-03-19T13:52:47;2.90;;;2.35;;
11018;SDS011;5563;52.296;6.806;2023-03-19T13:55:00;2.50;;;1.92;;
11018;SDS011;5563;52.296;6.806;2023-03-19T14:00:53;2.60;;;2.40;;
11018;SDS011;5563;52.296;6.806;2023-03-19T14:03:33;2.72;;;2.28;;
11018;SDS011;5563;52.296;6.806;2023-03-19T14:09:04;2.60;;;2.40;;
11018;SDS011;5563;52.296;6.806;2023-03-19T14:17:31;4.78;;;3.10;;
11018;SDS011;5563;52.296;6.806;2023-03-19T14:37:22;3.17;;;2.33;;
11018;SDS011;5563;52.296;6.806;2023-03-19T14:39:53;2.55;;;2.35;;
11018;SDS011;5563;52.296;6.806;2023-03-19T14:57:11;8.30;;;5.63;;
11018;SDS011;5563;52.296;6.806;2023-03-19T14:59:48;7.20;;;6.50;;
11018;SDS011;5563;52.296;6.806;2023-03-19T15:08:03;8.02;;;7.28;;
11018;SDS011;5563;52.296;6.806;2023-03-19T15:13:38;8.90;;;8.00;;
11018;SDS011;5563;52.296;6.806;2023-03-19T15:18:47;10.20;;;8.25;;
11018;SDS011;5563;52.296;6.806;2023-03-19T15:21:20;9.68;;;8.55;;
11018;SDS011;5563;52.296;6.806;2023-03-19T15:23:48;9.30;;;8.40;;
11018;SDS011;5563;52.296;6.806;2023-03-19T15:26:31;9.10;;;8.30;;
11018;SDS011;5563;52.296;6.806;2023-03-19T15:29:07;10.02;;;8.98;;
11018;SDS011;5563;52.296;6.806;2023-03-19T15:31:44;10.88;;;9.68;;
11018;SDS011;5563;52.296;6.806;2023-03-19T15:34:30;13.07;;;10.63;;
11018;SDS011;5563;52.296;6.806;2023-03-19T15:37:05;14.55;;;12.07;;
11018;SDS011;5563;52.296;6.806;2023-03-19T15:39:48;13.40;;;11.68;;
11018;SDS011;5563;52.296;6.806;2023-03-19T15:42:21;15.60;;;12.18;;
11018;SDS011;5563;52.296;6.806;2023-03-19T15:45:06;17.35;;;14.27;;
11018;SDS011;5563;52.296;6.806;2023-03-19T15:47:52;15.27;;;12.90;;
11018;SDS011;5563;52.296;6.806;2023-03-19T15:50:32;17.05;;;14.43;;
11018;SDS011;5563;52.296;6.806;2023-03-19T15:53:03;15.70;;;13.27;;
11018;SDS011;5563;52.296;6.806;2023-03-19T15:55:40;18.45;;;13.98;;
11018;SDS011;5563;52.296;6.806;2023-03-19T15:58:10;16.60;;;14.52;;
11018;SDS011;5563;52.296;6.806;2023-03-19T16:00:48;17.85;;;14.60;;
11018;SDS011;5563;52.296;6.806;2023-03-19T16:03:23;17.40;;;14.82;;
11018;SDS011;5563;52.296;6.806;2023-03-19T16:06:04;18.42;;;13.68;;
11018;SDS011;5563;52.296;6.806;2023-03-19T16:08:49;18.40;;;14.65;;
11018;SDS011;5563;52.296;6.806;2023-03-19T16:11:33;16.35;;;14.18;;
11018;SDS011;5563;52.296;6.806;2023-03-19T16:14:14;16.60;;;14.88;;
11018;SDS011;5563;52.296;6.806;2023-03-19T16:16:51;17.77;;;13.68;;
11018;SDS011;5563;52.296;6.806;2023-03-19T16:19:47;17.88;;;14.20;;
11018;SDS011;5563;52.296;6.806;2023-03-19T16:22:28;18.55;;;14.82;;
11018;SDS011;5563;52.296;6.806;2023-03-19T16:25:08;16.65;;;13.52;;
11018;SDS011;5563;52.296;6.806;2023-03-19T16:27:42;17.45;;;14.52;;
11018;SDS011;5563;52.296;6.806;2023-03-19T16:30:20;18.08;;;14.13;;
11018;SDS011;5563;52.296;6.806;2023-03-19T16:33:02;17.98;;;13.18;;
11018;SDS011;5563;52.296;6.806;2023-03-19T16:35:36;16.40;;;13.48;;
11018;SDS011;5563;52.296;6.806;2023-03-19T16:41:17;16.98;;;13.48;;
11018;SDS011;5563;52.296;6.806;2023-03-19T16:43:55;16.85;;;13.90;;
11018;SDS011;5563;52.296;6.806;2023-03-19T16:46:43;16.98;;;14.07;;
11018;SDS011;5563;52.296;6.806;2023-03-19T16:49:17;15.88;;;13.27;;
11018;SDS011;5563;52.296;6.806;2023-03-19T16:51:53;17.88;;;14.20;;
11018;SDS011;5563;52.296;6.806;2023-03-19T16:54:20;20.00;;;14.98;;
11018;SDS011;5563;52.296;6.806;2023-03-19T16:56:56;19.60;;;14.98;;
11018;SDS011;5563;52.296;6.806;2023-03-19T16:59:28;21.90;;;16.23;;
11018;SDS011;5563;52.296;6.806;2023-03-19T17:02:08;20.00;;;15.07;;
11018;SDS011;5563;52.296;6.806;2023-03-19T17:04:47;18.80;;;13.95;;
11018;SDS011;5563;52.296;6.806;2023-03-19T17:07:21;19.85;;;14.48;;
11018;SDS011;5563;52.296;6.806;2023-03-19T17:09:54;17.63;;;12.90;;
11018;SDS011;5563;52.296;6.806;2023-03-19T17:12:30;16.65;;;12.57;;
11018;SDS011;5563;52.296;6.806;2023-03-19T17:14:56;16.83;;;12.15;;
11018;SDS011;5563;52.296;6.806;2023-03-19T17:17:30;18.23;;;12.43;;
11018;SDS011;5563;52.296;6.806;2023-03-19T17:19:56;18.50;;;12.40;;
11018;SDS011;5563;52.296;6.806;2023-03-19T17:22:30;18.65;;;12.55;;
11018;SDS011;5563;52.296;6.806;2023-03-19T17:24:57;15.63;;;11.73;;
11018;SDS011;5563;52.296;6.806;2023-03-19T17:27:30;17.58;;;11.77;;
11018;SDS011;5563;52.296;6.806;2023-03-19T17:29:59;13.80;;;11.48;;
11018;SDS011;5563;52.296;6.806;2023-03-19T17:32:33;15.60;;;11.90;;
11018;SDS011;5563;52.296;6.806;2023-03-19T17:34:59;15.02;;;10.75;;
11018;SDS011;5563;52.296;6.806;2023-03-19T17:37:33;15.85;;;11.05;;
11018;SDS011;5563;52.296;6.806;2023-03-19T17:42:51;15.25;;;10.68;;
11018;SDS011;5563;52.296;6.806;2023-03-19T17:45:26;15.82;;;10.80;;
11018;SDS011;5563;52.296;6.806;2023-03-19T17:48:08;15.90;;;9.82;;
11018;SDS011;5563;52.296;6.806;2023-03-19T17:50:50;15.60;;;10.40;;
11018;SDS011;5563;52.296;6.806;2023-03-19T17:53:19;16.90;;;10.65;;
11018;SDS011;5563;52.296;6.806;2023-03-19T17:55:53;15.43;;;9.95;;
11018;SDS011;5563;52.296;6.806;2023-03-19T17:58:20;16.38;;;10.65;;
11018;SDS011;5563;52.296;6.806;2023-03-19T18:00:53;17.23;;;10.70;;
11018;SDS011;5563;52.296;6.806;2023-03-19T18:03:21;17.65;;;12.02;;
11018;SDS011;5563;52.296;6.806;2023-03-19T18:05:57;18.55;;;11.45;;
11018;SDS011;5563;52.296;6.806;2023-03-19T18:08:23;17.33;;;11.63;;
11018;SDS011;5563;52.296;6.806;2023-03-19T18:10:57;17.63;;;11.65;;
11018;SDS011;5563;52.296;6.806;2023-03-19T18:13:23;16.88;;;10.70;;
11018;SDS011;5563;52.296;6.806;2023-03-19T18:15:57;15.70;;;10.15;;
11018;SDS011;5563;52.296;6.806;2023-03-19T18:18:23;16.48;;;11.00;;
11018;SDS011;5563;52.296;6.806;2023-03-19T18:20:50;18.00;;;11.68;;
11018;SDS011;5563;52.296;6.806;2023-03-19T18:23:25;18.33;;;11.98;;
11018;SDS011;5563;52.296;6.806;2023-03-19T18:25:59;17.33;;;10.38;;
11018;SDS011;5563;52.296;6.806;2023-03-19T18:28:25;16.90;;;10.63;;
11018;SDS011;5563;52.296;6.806;2023-03-19T18:30:59;18.60;;;11.27;;
11018;SDS011;5563;52.296;6.806;2023-03-19T18:33:26;17.90;;;10.82;;
11018;SDS011;5563;52.296;6.806;2023-03-19T18:36:03;18.88;;;11.55;;
11018;SDS011;5563;52.296;6.806;2023-03-19T18:38:36;18.05;;;11.35;;
11018;SDS011;5563;52.296;6.806;2023-03-19T18:41:02;17.27;;;10.90;;
11018;SDS011;5563;52.296;6.806;2023-03-19T18:43:36;17.02;;;10.70;;
11018;SDS011;5563;52.296;6.806;2023-03-19T18:46:04;17.35;;;10.90;;